createdAt,value
2022-10-04T00:02:00.520Z,69.48
2022-10-04T00:04:59.022Z,69.39
2022-10-04T00:07:39.750Z,69.41
2022-10-04T00:10:20.774Z,69.41
2022-10-04T00:12:58.653Z,69.21
2022-10-04T00:15:37.338Z,69.24
2022-10-04T00:18:11.803Z,68.98
2022-10-04T00:20:53.456Z,68.73
2022-10-04T00:23:25.102Z,68.76
2022-10-04T00:25:58.720Z,68.71
2022-10-04T00:28:36.168Z,68.88
2022-10-04T00:31:18.498Z,68.96
2022-10-04T00:33:54.068Z,68.94
2022-10-04T00:36:25.669Z,68.36
2022-10-04T00:39:07.677Z,68.38
2022-10-04T00:41:48.437Z,68.74
2022-10-04T00:44:44.924Z,68.92
2022-10-04T00:47:35.470Z,69.03
2022-10-04T00:50:14.844Z,68.60
2022-10-04T00:52:53.112Z,68.57
2022-10-04T00:55:39.828Z,68.67
2022-10-04T00:58:45.183Z,68.28
2022-10-04T01:01:23.836Z,68.38
2022-10-04T01:04:00.565Z,68.29
2022-10-04T01:06:34.271Z,68.59
2022-10-04T01:09:09.737Z,68.34
2022-10-04T01:11:47.375Z,68.30
2022-10-04T01:14:34.224Z,68.60
2022-10-04T01:17:05.896Z,68.63
2022-10-04T01:19:38.823Z,68.25
2022-10-04T01:22:14.465Z,68.64
2022-10-04T01:24:46.160Z,68.33
2022-10-04T01:27:34.332Z,67.78
2022-10-04T01:30:09.649Z,67.65
2022-10-04T01:32:45.396Z,67.98
2022-10-04T01:35:20.434Z,67.74
2022-10-04T01:37:52.084Z,68.27
2022-10-04T01:40:23.806Z,68.35
2022-10-04T01:43:02.122Z,68.56
2022-10-04T01:45:37.674Z,68.39
2022-10-04T01:48:16.185Z,68.47
2022-10-04T01:50:57.582Z,68.41
2022-10-04T01:53:32.477Z,68.05
2022-10-04T01:56:10.252Z,68.46
2022-10-04T01:58:47.022Z,68.47
2022-10-04T02:01:31.642Z,68.53
2022-10-04T02:04:11.887Z,67.97
2022-10-04T02:06:45.798Z,68.13
2022-10-04T02:09:25.700Z,68.03
2022-10-04T02:11:59.156Z,67.89
2022-10-04T02:14:33.601Z,68.17
2022-10-04T02:17:10.859Z,67.59
2022-10-04T02:19:43.250Z,68.07
2022-10-04T02:22:15.678Z,68.11
2022-10-04T02:24:49.764Z,68.42
2022-10-04T02:27:30.174Z,68.51
2022-10-04T02:30:07.308Z,68.26
2022-10-04T02:33:02.486Z,68.19
2022-10-04T02:35:46.449Z,68.32
2022-10-04T02:38:32.842Z,68.18
2022-10-04T02:41:17.473Z,68.24
2022-10-04T02:44:13.563Z,68.51
2022-10-04T02:46:57.331Z,68.30
2022-10-04T02:49:53.664Z,68.86
2022-10-04T02:52:35.333Z,68.63
2022-10-04T02:55:13.681Z,68.50
2022-10-04T02:57:45.934Z,68.85
2022-10-04T03:00:24.654Z,68.94
2022-10-04T03:03:16.707Z,68.91
2022-10-04T03:06:03.171Z,68.81
2022-10-04T03:08:47.119Z,68.60
2022-10-04T03:11:22.628Z,68.73
2022-10-04T03:13:57.533Z,68.73
2022-10-04T03:16:36.259Z,68.97
2022-10-04T03:19:08.975Z,68.71
2022-10-04T03:21:43.663Z,68.79
2022-10-04T03:24:20.567Z,68.91
2022-10-04T03:26:55.676Z,68.97
2022-10-04T03:29:30.385Z,68.92
2022-10-04T03:32:03.864Z,68.94
2022-10-04T03:34:38.056Z,68.58
2022-10-04T03:37:16.551Z,68.77
2022-10-04T03:39:50.510Z,68.67
2022-10-04T03:42:30.474Z,68.81
2022-10-04T03:45:07.280Z,68.77
2022-10-04T03:47:43.335Z,69.12
2022-10-04T03:50:33.607Z,68.83
2022-10-04T03:53:14.660Z,68.76
2022-10-04T03:55:46.512Z,69.15
2022-10-04T03:58:19.211Z,69.31
2022-10-04T04:01:28.057Z,68.98
2022-10-04T04:04:18.472Z,69.30
2022-10-04T04:06:50.470Z,69.36
2022-10-04T04:09:29.945Z,69.44
2022-10-04T04:12:06.427Z,68.97
2022-10-04T04:14:41.346Z,69.14
2022-10-04T04:17:38.187Z,69.38
2022-10-04T04:20:20.722Z,69.65
2022-10-04T04:23:15.314Z,69.28
2022-10-04T04:25:55.668Z,69.46
2022-10-04T04:28:36.668Z,69.60
2022-10-04T04:31:29.901Z,70.19
2022-10-04T04:34:04.527Z,69.81
2022-10-04T04:36:41.662Z,69.92
2022-10-04T04:39:34.327Z,69.46
2022-10-04T04:42:19.262Z,69.17
2022-10-04T04:44:53.529Z,69.27
2022-10-04T04:47:27.783Z,69.29
2022-10-04T04:50:08.331Z,69.12
2022-10-04T04:52:40.803Z,69.15
2022-10-04T04:56:02.335Z,69.51
2022-10-04T04:58:42.441Z,69.57
2022-10-04T05:01:27.385Z,69.88
2022-10-04T05:04:03.306Z,69.80
2022-10-04T05:06:36.871Z,69.65
2022-10-04T05:09:33.579Z,69.46
2022-10-04T05:12:12.785Z,69.57
2022-10-04T05:14:49.277Z,70.05
2022-10-04T05:17:25.085Z,69.89
2022-10-04T05:19:59.268Z,69.69
2022-10-04T05:22:32.308Z,70.22
2022-10-04T05:25:13.534Z,69.75
2022-10-04T05:27:45.643Z,69.84
2022-10-04T05:30:47.603Z,69.63
2022-10-04T05:33:45.879Z,69.86
2022-10-04T05:36:29.747Z,69.97
2022-10-04T05:39:09.646Z,69.72
2022-10-04T05:41:56.321Z,69.11
2022-10-04T05:44:35.166Z,69.33
2022-10-04T05:47:08.231Z,69.46
2022-10-04T05:49:46.482Z,69.25
2022-10-04T05:52:38.658Z,69.56
2022-10-04T05:55:13.194Z,69.35
2022-10-04T05:57:59.780Z,69.43
2022-10-04T06:01:01.908Z,69.64
2022-10-04T06:03:50.503Z,69.76
2022-10-04T06:06:38.477Z,69.67
2022-10-04T06:09:27.998Z,69.72
2022-10-04T06:12:11.654Z,69.33
2022-10-04T06:15:08.359Z,69.30
2022-10-04T06:18:10.670Z,69.02
2022-10-04T06:20:42.247Z,69.17
2022-10-04T06:23:17.163Z,68.51
2022-10-04T06:26:09.365Z,68.47
2022-10-04T06:28:46.961Z,68.58
2022-10-04T06:31:57.243Z,68.58
2022-10-04T06:34:51.965Z,68.22
2022-10-04T06:37:41.959Z,68.36
2022-10-04T06:40:34.346Z,68.13
2022-10-04T06:43:23.966Z,67.95
2022-10-04T06:46:15.731Z,67.82
2022-10-04T06:48:56.789Z,67.60
2022-10-04T06:51:42.914Z,67.20
2022-10-04T06:54:31.948Z,66.73
2022-10-04T06:57:18.971Z,66.88
2022-10-04T07:00:23.647Z,66.92
2022-10-04T07:03:09.434Z,66.93
2022-10-04T07:06:04.942Z,66.92
2022-10-04T07:08:48.811Z,66.09
2022-10-04T07:11:45.565Z,65.72
2022-10-04T07:14:43.683Z,64.97
2022-10-04T07:17:24.429Z,64.62
2022-10-04T07:20:00.869Z,63.79
2022-10-04T07:22:58.303Z,62.51
2022-10-04T07:25:48.066Z,59.34
2022-10-04T07:28:58.060Z,57.24
2022-10-04T07:31:38.238Z,55.43
2022-10-04T07:34:15.730Z,53.31
2022-10-04T07:36:53.909Z,50.03
2022-10-04T07:39:31.772Z,49.51
2022-10-04T07:42:26.373Z,49.03
2022-10-04T07:45:05.956Z,49.21
2022-10-04T07:47:37.966Z,50.47
2022-10-04T07:50:28.575Z,50.10
2022-10-04T07:53:15.355Z,51.12
2022-10-04T07:56:07.644Z,51.16
2022-10-04T07:59:22.566Z,52.32
2022-10-04T08:02:07.199Z,52.88
2022-10-04T08:04:56.321Z,52.88
2022-10-04T08:07:51.107Z,52.79
2022-10-04T08:10:44.064Z,52.79
2022-10-04T08:13:41.501Z,51.67
2022-10-04T08:16:33.292Z,49.73
2022-10-04T08:19:25.850Z,47.88
2022-10-04T08:22:33.347Z,45.77
2022-10-04T08:25:33.341Z,43.64
2022-10-04T08:28:26.702Z,43.71
2022-10-04T08:31:30.651Z,45.71
2022-10-04T08:34:26.969Z,46.62
2022-10-04T08:37:24.192Z,47.80
2022-10-04T08:40:12.754Z,48.41
2022-10-04T08:43:02.916Z,48.95
2022-10-04T08:45:56.364Z,49.18
2022-10-04T08:48:58.877Z,49.67
2022-10-04T08:52:04.599Z,49.04
2022-10-04T08:54:40.379Z,50.43
2022-10-04T08:57:16.487Z,50.38
2022-10-04T09:00:08.625Z,49.67
2022-10-04T09:03:14.031Z,50.65
2022-10-04T09:06:13.282Z,50.62
2022-10-04T09:09:21.836Z,50.47
2022-10-04T09:12:14.293Z,50.80
2022-10-04T09:14:50.111Z,50.94
2022-10-04T09:17:59.345Z,51.24
2022-10-04T09:21:06.167Z,51.05
2022-10-04T09:24:05.197Z,51.47
2022-10-04T09:26:52.336Z,51.15
2022-10-04T09:29:38.973Z,51.90
2022-10-04T09:32:35.572Z,52.13
2022-10-04T09:35:13.127Z,51.97
2022-10-04T09:38:13.587Z,51.43
2022-10-04T09:41:13.051Z,50.41
2022-10-04T09:44:22.741Z,50.04
2022-10-04T09:47:31.136Z,50.33
2022-10-04T09:50:15.126Z,50.06
2022-10-04T09:53:08.200Z,49.76
2022-10-04T09:55:45.672Z,48.65
2022-10-04T09:58:36.205Z,49.93
2022-10-04T10:01:14.332Z,50.18
2022-10-04T10:03:48.918Z,49.54
2022-10-04T10:06:32.295Z,49.38
2022-10-04T10:09:50.042Z,48.22
2022-10-04T10:13:06.135Z,47.10
2022-10-04T10:15:58.199Z,46.72
2022-10-04T10:19:01.061Z,46.71
2022-10-04T10:21:58.515Z,47.21
2022-10-04T10:25:05.178Z,47.08
2022-10-04T10:28:07.036Z,47.30
2022-10-04T10:31:06.187Z,48.05
2022-10-04T10:33:56.283Z,47.93
2022-10-04T10:36:52.277Z,48.00
2022-10-04T10:39:48.393Z,48.93
2022-10-04T10:42:43.639Z,48.97
2022-10-04T10:45:29.672Z,48.54
2022-10-04T10:48:19.293Z,46.84
2022-10-04T10:51:17.420Z,46.14
2022-10-04T10:54:36.460Z,45.53
2022-10-04T10:57:45.702Z,44.33
2022-10-04T11:00:47.153Z,42.58
2022-10-04T11:04:14.276Z,42.01
2022-10-04T11:07:02.990Z,41.98
2022-10-04T11:09:59.596Z,42.67
2022-10-04T11:12:31.213Z,42.83
2022-10-04T11:15:31.774Z,40.21
2022-10-04T11:18:27.566Z,39.80
2022-10-04T11:21:27.940Z,39.83
2022-10-04T11:24:44.620Z,39.24
2022-10-04T11:27:47.834Z,38.54
2022-10-04T11:30:26.259Z,38.66
2022-10-04T11:33:42.359Z,39.54
2022-10-04T11:36:48.426Z,39.87
2022-10-04T11:39:43.767Z,41.18
2022-10-04T11:42:26.221Z,41.91
2022-10-04T11:45:19.312Z,42.52
2022-10-04T11:48:09.420Z,42.79
2022-10-04T11:51:20.865Z,43.44
2022-10-04T11:54:14.204Z,43.96
2022-10-04T11:57:04.207Z,43.67
2022-10-04T11:59:48.226Z,42.77
2022-10-04T12:02:32.281Z,42.00
2022-10-04T12:05:17.322Z,42.88
2022-10-04T12:08:14.723Z,43.16
2022-10-04T12:11:01.462Z,42.75
2022-10-04T12:13:32.992Z,42.34
2022-10-04T12:16:41.563Z,42.10
2022-10-04T12:19:29.006Z,40.70
2022-10-04T12:22:28.195Z,40.95
2022-10-04T12:25:25.109Z,41.45
2022-10-04T12:28:28.015Z,40.77
2022-10-04T12:31:24.114Z,41.25
2022-10-04T12:34:14.951Z,40.36
2022-10-04T12:37:07.066Z,40.28
2022-10-04T12:39:48.127Z,39.34
2022-10-04T12:42:32.353Z,40.73
2022-10-04T12:45:13.522Z,40.81
2022-10-04T12:47:56.627Z,41.06
2022-10-04T12:50:52.214Z,41.63
2022-10-04T12:53:34.638Z,41.25
2022-10-04T12:56:08.606Z,41.42
2022-10-04T12:59:12.516Z,42.99
2022-10-04T13:02:11.440Z,42.14
2022-10-04T13:04:52.673Z,42.57
2022-10-04T13:07:36.818Z,43.05
2022-10-04T13:10:25.039Z,42.73
2022-10-04T13:13:23.475Z,42.14
2022-10-04T13:19:34.628Z,41.44
2022-10-04T13:23:00.239Z,41.10
2022-10-04T13:25:45.780Z,41.35
2022-10-04T13:28:27.703Z,40.57
2022-10-04T13:31:08.728Z,39.04
2022-10-04T13:33:50.910Z,38.84
2022-10-04T13:37:11.817Z,38.52
2022-10-04T13:39:49.830Z,38.21
2022-10-04T13:42:45.955Z,38.73
2022-10-04T13:46:02.732Z,39.99
2022-10-04T13:48:53.425Z,39.87
2022-10-04T13:51:43.017Z,40.30
2022-10-04T13:54:38.076Z,39.95
2022-10-04T13:57:37.181Z,39.52
2022-10-04T14:00:19.559Z,40.16
2022-10-04T14:02:53.885Z,39.76
2022-10-04T14:05:40.405Z,40.16
2022-10-04T14:08:33.655Z,40.75
2022-10-04T14:11:23.851Z,39.46
2022-10-04T14:14:14.632Z,39.79
2022-10-04T14:17:41.856Z,39.38
2022-10-04T14:20:28.600Z,39.24
2022-10-04T14:23:32.517Z,39.79
2022-10-04T14:26:13.019Z,39.86
2022-10-04T14:29:00.460Z,41.51
2022-10-04T14:32:09.207Z,40.24
2022-10-04T14:34:57.026Z,40.30
2022-10-04T14:38:12.941Z,39.37
2022-10-04T14:41:08.577Z,39.55
2022-10-04T14:43:58.733Z,39.96
2022-10-04T14:46:54.989Z,40.89
2022-10-04T14:49:44.878Z,40.78
2022-10-04T14:52:49.488Z,41.68
2022-10-04T14:55:51.491Z,41.25
2022-10-04T14:58:32.272Z,41.41
2022-10-04T15:01:23.356Z,40.92
2022-10-04T15:04:14.132Z,40.50
2022-10-04T15:07:18.664Z,40.98
2022-10-04T15:09:57.870Z,40.97
2022-10-04T15:12:51.856Z,41.10
2022-10-04T15:15:54.982Z,41.74
2022-10-04T15:18:38.594Z,41.93
2022-10-04T15:21:34.954Z,43.45
2022-10-04T15:24:18.447Z,43.55
2022-10-04T15:27:21.994Z,42.88
2022-10-04T15:30:30.830Z,42.97
2022-10-04T15:33:23.610Z,42.35
2022-10-04T15:36:27.512Z,42.92
2022-10-04T15:39:07.585Z,42.93
2022-10-04T15:41:57.536Z,43.84
2022-10-04T15:44:48.664Z,44.52
2022-10-04T15:47:27.709Z,44.54
2022-10-04T15:50:37.888Z,45.50
2022-10-04T15:53:20.114Z,45.43
2022-10-04T15:56:04.636Z,45.91
2022-10-04T15:58:56.240Z,45.91
2022-10-04T16:02:03.197Z,46.20
2022-10-04T16:05:05.614Z,46.59
2022-10-04T16:07:55.779Z,47.27
2022-10-04T16:11:11.623Z,47.55
2022-10-04T16:13:55.094Z,47.61
2022-10-04T16:16:30.120Z,47.75
2022-10-04T16:19:16.763Z,47.84
2022-10-04T16:21:48.402Z,48.44
2022-10-04T16:24:22.065Z,48.60
2022-10-04T16:26:56.309Z,48.60
2022-10-04T16:29:35.775Z,48.86
2022-10-04T16:32:12.955Z,49.02
2022-10-04T16:35:16.353Z,49.68
2022-10-04T16:38:16.942Z,50.13
2022-10-04T16:41:00.447Z,50.99
2022-10-04T16:43:34.235Z,51.04
2022-10-04T16:46:23.164Z,51.31
2022-10-04T16:49:03.833Z,51.71
2022-10-04T16:51:48.486Z,52.08
2022-10-04T16:54:26.515Z,52.54
2022-10-04T16:56:58.108Z,52.61
2022-10-04T16:59:38.843Z,53.01
2022-10-04T17:02:31.170Z,53.40
2022-10-04T17:05:22.727Z,54.09
2022-10-04T17:08:17.272Z,54.88
2022-10-04T17:10:48.911Z,54.94
2022-10-04T17:13:38.751Z,55.74
2022-10-04T17:16:18.097Z,55.99
2022-10-04T17:18:49.813Z,56.48
2022-10-04T17:21:46.130Z,56.88
2022-10-04T17:24:47.146Z,57.18
2022-10-04T17:27:48.298Z,57.50
2022-10-04T17:30:26.569Z,57.73
2022-10-04T17:33:38.942Z,57.76
2022-10-04T17:36:48.145Z,58.04
2022-10-04T17:39:35.960Z,57.86
2022-10-04T17:42:31.585Z,58.20
2022-10-04T17:45:30.902Z,58.57
2022-10-04T17:48:26.503Z,58.74
2022-10-04T17:51:44.895Z,59.11
2022-10-04T17:54:52.761Z,59.15
2022-10-04T17:57:39.538Z,59.85
2022-10-04T18:00:18.444Z,59.61
2022-10-04T18:03:04.353Z,60.43
2022-10-04T18:06:16.581Z,60.26
2022-10-04T18:09:00.297Z,60.60
2022-10-04T18:11:50.259Z,60.58
2022-10-04T18:14:52.261Z,61.03
2022-10-04T18:17:57.744Z,61.60
2022-10-04T18:21:02.304Z,62.10
2022-10-04T18:23:56.234Z,62.33
2022-10-04T18:26:34.604Z,62.53
2022-10-04T18:29:15.696Z,62.41
2022-10-04T18:31:59.942Z,62.56
2022-10-04T18:34:32.253Z,62.66
2022-10-04T18:37:21.521Z,62.95
2022-10-04T18:40:15.222Z,63.20
2022-10-04T18:43:03.226Z,63.33
2022-10-04T18:45:35.232Z,63.43
2022-10-04T18:48:18.336Z,63.71
2022-10-04T18:50:50.885Z,63.84
2022-10-04T18:53:36.546Z,64.46
2022-10-04T18:56:10.189Z,64.71
2022-10-04T18:59:32.189Z,65.21
2022-10-04T19:02:38.203Z,65.40
2022-10-04T19:05:25.689Z,65.76
2022-10-04T19:08:22.697Z,66.53
2022-10-04T19:11:02.872Z,66.20
2022-10-04T19:13:49.669Z,67.02
2022-10-04T19:16:46.293Z,67.10
2022-10-04T19:19:27.044Z,66.58
2022-10-04T19:22:11.760Z,67.00
2022-10-04T19:25:12.073Z,67.33
2022-10-04T19:27:52.093Z,68.17
2022-10-04T19:30:44.031Z,67.84
2022-10-04T19:33:37.377Z,67.85
2022-10-04T19:36:31.447Z,68.36
2022-10-04T19:39:30.322Z,68.42
2022-10-04T19:42:12.575Z,68.22
2022-10-04T19:45:25.150Z,68.59
2022-10-04T19:48:07.136Z,68.65
2022-10-04T19:50:47.902Z,68.63
2022-10-04T19:53:41.160Z,69.11
2022-10-04T19:56:28.995Z,69.55
2022-10-04T19:59:19.981Z,69.31
2022-10-04T20:01:53.154Z,69.49
2022-10-04T20:04:35.474Z,69.51
2022-10-04T20:07:28.361Z,69.55
2022-10-04T20:10:23.089Z,69.50
2022-10-04T20:13:21.322Z,69.91
2022-10-04T20:16:00.600Z,69.87
2022-10-04T20:18:32.307Z,70.04
2022-10-04T20:21:08.683Z,69.66
2022-10-04T20:23:40.682Z,69.54
2022-10-04T20:26:58.725Z,69.89
2022-10-04T20:29:36.413Z,69.88
2022-10-04T20:32:34.543Z,69.92
2022-10-04T20:35:35.477Z,70.63
2022-10-04T20:38:31.766Z,70.80
2022-10-04T20:41:04.652Z,70.70
2022-10-04T20:44:02.841Z,70.72
2022-10-04T20:46:38.557Z,71.05
2022-10-04T20:49:17.049Z,70.88
2022-10-04T20:51:52.104Z,71.18
2022-10-04T20:54:24.020Z,71.46
2022-10-04T20:56:57.180Z,71.49
2022-10-04T20:59:28.864Z,71.79
2022-10-04T21:02:05.117Z,71.92
2022-10-04T21:04:47.419Z,71.88
2022-10-04T21:07:31.136Z,72.44
2022-10-04T21:10:34.001Z,72.48
2022-10-04T21:13:05.751Z,72.38
2022-10-04T21:15:55.549Z,72.71
2022-10-04T21:18:27.167Z,73.05
2022-10-04T21:20:58.755Z,73.08
2022-10-04T21:23:33.781Z,73.09
2022-10-04T21:26:25.249Z,73.59
2022-10-04T21:28:58.220Z,73.37
2022-10-04T21:31:30.202Z,73.42
2022-10-04T21:34:04.825Z,73.53
2022-10-04T21:36:37.882Z,73.52
2022-10-04T21:39:09.574Z,73.45
2022-10-04T21:41:41.332Z,73.86
2022-10-04T21:44:13.083Z,73.93
2022-10-04T21:46:45.554Z,73.74
2022-10-04T21:49:19.868Z,73.93
2022-10-04T21:51:51.609Z,74.09
2022-10-04T21:54:23.842Z,74.02
2022-10-04T21:56:55.593Z,73.97
2022-10-04T21:59:27.830Z,73.85
2022-10-04T22:01:59.741Z,74.12
2022-10-04T22:04:31.772Z,74.05
2022-10-04T22:07:03.696Z,74.12
2022-10-04T22:09:41.738Z,73.99
2022-10-04T22:12:20.874Z,73.62
2022-10-04T22:14:53.690Z,74.22
2022-10-04T22:17:25.451Z,73.61
2022-10-04T22:19:57.594Z,73.67
2022-10-04T22:22:35.303Z,73.89
2022-10-04T22:25:19.410Z,73.83
2022-10-04T22:27:53.451Z,74.07
2022-10-04T22:30:28.201Z,74.11
2022-10-04T22:33:23.753Z,74.14
2022-10-04T22:36:18.608Z,74.18
2022-10-04T22:39:04.229Z,74.22
2022-10-04T22:41:40.330Z,74.22
2022-10-04T22:44:25.259Z,74.18
2022-10-04T22:46:59.864Z,74.04
2022-10-04T22:49:34.773Z,73.76
2022-10-04T22:52:19.805Z,73.96
2022-10-04T22:54:52.709Z,74.04
2022-10-04T22:57:26.688Z,74.03
2022-10-04T22:59:58.270Z,74.07
2022-10-04T23:02:30.456Z,74.09
2022-10-04T23:05:15.181Z,74.29
2022-10-04T23:07:48.213Z,74.34
2022-10-04T23:10:20.223Z,74.61
2022-10-04T23:12:52.052Z,74.55
2022-10-04T23:15:23.711Z,74.72
2022-10-04T23:17:55.788Z,74.85
2022-10-04T23:20:30.189Z,74.62
2022-10-04T23:23:02.497Z,74.57
2022-10-04T23:25:40.055Z,74.72
2022-10-04T23:28:14.442Z,74.74
2022-10-04T23:30:55.820Z,74.55
2022-10-04T23:33:27.570Z,74.65
2022-10-04T23:35:59.189Z,74.79
2022-10-04T23:38:31.735Z,74.71
2022-10-04T23:41:06.041Z,75.19
2022-10-04T23:43:38.337Z,75.17
2022-10-04T23:46:19.349Z,75.43
2022-10-04T23:48:53.128Z,75.46
2022-10-04T23:51:24.861Z,75.48
2022-10-04T23:53:56.508Z,75.50
2022-10-04T23:56:29.420Z,75.56
2022-10-04T23:59:01.046Z,75.55
